Time;durP1;ratioP1;P1;durP2;ratioP2;P2;SDS_P1;SDS_P2;PMS_P1;PMS_P2;Temp;Humidity;BMP_temperature;BMP_pressure;BME280_temperature;BME280_humidity;BME280_pressure;Samples;Min_cycle;Max_cycle;Signal;HPM_P1;HPM_P2
2024/01/16 00:01:07;;;;;;;6.87;5.07;;;4.40;99.90;;;;;;5035828;28;20246;-39
2024/01/16 00:03:33;;;;;;;5.65;5.10;;;4.40;99.90;;;;;;5020816;28;20537;-38
2024/01/16 00:06:00;;;;;;;7.35;5.38;;;4.40;99.90;;;;;;5038550;28;21060;-38
2024/01/16 00:08:28;;;;;;;9.93;5.78;;;4.40;99.90;;;;;;5051138;28;20199;-35
2024/01/16 00:10:54;;;;;;;6.07;5.45;;;4.50;99.90;;;;;;5043711;28;20182;-35
2024/01/16 00:13:20;;;;;;;5.72;5.10;;;4.40;99.90;;;;;;5036216;28;20196;-36
2024/01/16 00:15:46;;;;;;;7.10;5.53;;;4.40;99.90;;;;;;5032977;28;20202;-38
2024/01/16 00:18:15;;;;;;;8.43;4.95;;;4.40;99.90;;;;;;5034501;28;20433;-38
2024/01/16 00:20:46;;;;;;;5.43;4.93;;;4.50;99.90;;;;;;5050307;28;20220;-39
2024/01/16 00:23:12;;;;;;;6.53;5.22;;;4.40;99.90;;;;;;5048060;28;20211;-38
2024/01/16 00:25:38;;;;;;;6.88;4.93;;;4.40;99.90;;;;;;5031040;28;20191;-35
2024/01/16 00:28:06;;;;;;;6.78;4.95;;;4.40;99.90;;;;;;5015870;28;20199;-34
2024/01/16 00:30:35;;;;;;;6.22;4.75;;;4.40;99.90;;;;;;5043023;28;20200;-37
2024/01/16 00:33:04;;;;;;;11.00;5.30;;;4.50;99.90;;;;;;5030244;28;20233;-36
2024/01/16 00:35:33;;;;;;;5.45;4.63;;;4.50;99.90;;;;;;5034324;28;20230;-36
2024/01/16 00:37:59;;;;;;;5.93;4.70;;;4.50;99.90;;;;;;5046645;28;20399;-36
2024/01/16 00:40:25;;;;;;;5.37;3.90;;;4.40;99.90;;;;;;5048010;28;20227;-35
2024/01/16 00:42:51;;;;;;;6.72;4.72;;;4.40;99.90;;;;;;5049260;28;20534;-38
2024/01/16 00:45:17;;;;;;;4.78;3.97;;;4.40;99.90;;;;;;5052362;28;20257;-33
2024/01/16 00:47:43;;;;;;;6.50;5.15;;;4.40;99.90;;;;;;5049293;28;20203;-35
2024/01/16 00:50:09;;;;;;;6.57;4.53;;;4.40;99.90;;;;;;5009352;28;20208;-36
2024/01/16 00:52:35;;;;;;;6.13;4.30;;;4.50;99.90;;;;;;5016295;28;20886;-31
2024/01/16 00:55:01;;;;;;;8.43;6.13;;;4.40;99.90;;;;;;5044733;28;20183;-38
2024/01/16 00:57:27;;;;;;;4.43;4.03;;;4.40;99.90;;;;;;5048785;28;20187;-34
2024/01/16 00:59:56;;;;;;;7.18;4.30;;;4.50;99.90;;;;;;5055274;28;20490;-35
2024/01/16 01:02:27;;;;;;;5.28;4.07;;;4.40;99.90;;;;;;5032564;28;20222;-36
2024/01/16 01:04:55;;;;;;;6.45;4.10;;;4.40;99.90;;;;;;5035220;28;20192;-38
2024/01/16 01:07:25;;;;;;;4.65;3.90;;;4.40;99.90;;;;;;5032281;28;20191;-40
2024/01/16 01:09:52;;;;;;;4.97;4.40;;;4.40;99.90;;;;;;5055694;28;20920;-36
2024/01/16 01:12:18;;;;;;;5.22;4.72;;;4.50;99.90;;;;;;5035376;28;20192;-35
2024/01/16 01:14:44;;;;;;;8.27;4.20;;;4.40;99.90;;;;;;5014056;28;20570;-35
2024/01/16 01:17:18;;;;;;;5.60;4.10;;;4.40;99.90;;;;;;5052544;28;20200;-38
2024/01/16 01:19:46;;;;;;;6.40;4.03;;;4.40;99.90;;;;;;5037593;28;20211;-36
2024/01/16 01:22:14;;;;;;;7.30;4.18;;;4.40;99.90;;;;;;5055260;28;20190;-31
2024/01/16 01:24:40;;;;;;;6.05;4.30;;;4.40;99.90;;;;;;5038674;28;20184;-39
2024/01/16 01:27:06;;;;;;;6.30;4.20;;;4.40;99.90;;;;;;5052079;28;20196;-32
2024/01/16 01:29:35;;;;;;;5.15;4.53;;;4.40;99.90;;;;;;5033722;28;20445;-37
2024/01/16 01:32:01;;;;;;;6.53;5.10;;;4.40;99.90;;;;;;5043367;28;20188;-36
2024/01/16 01:34:29;;;;;;;5.00;4.60;;;4.40;99.90;;;;;;5032845;28;20206;-34
2024/01/16 01:36:57;;;;;;;7.45;5.32;;;4.40;99.90;;;;;;5050181;28;20207;-36
2024/01/16 01:39:23;;;;;;;8.10;5.10;;;4.40;99.90;;;;;;5054122;28;20257;-37
2024/01/16 01:41:52;;;;;;;6.75;5.40;;;4.50;99.90;;;;;;5048473;28;20181;-34
2024/01/16 01:44:18;;;;;;;6.78;5.40;;;4.40;99.90;;;;;;5023647;28;20203;-40
2024/01/16 01:46:45;;;;;;;6.57;5.57;;;4.40;99.90;;;;;;5045281;28;20214;-39
2024/01/16 01:49:13;;;;;;;9.45;6.60;;;4.40;99.90;;;;;;5057030;28;20433;-38
2024/01/16 01:51:39;;;;;;;8.40;6.40;;;4.40;99.90;;;;;;5052674;28;20180;-31
2024/01/16 01:54:06;;;;;;;8.80;6.60;;;4.40;99.90;;;;;;5020686;28;20191;-36
2024/01/16 01:56:36;;;;;;;6.97;6.22;;;4.40;99.90;;;;;;5015499;28;20205;-37
2024/01/16 01:59:02;;;;;;;7.13;5.90;;;4.40;99.90;;;;;;5053410;28;20969;-36
2024/01/16 02:01:31;;;;;;;7.40;6.22;;;4.40;99.90;;;;;;5048519;28;20215;-39
2024/01/16 02:04:01;;;;;;;8.95;6.60;;;4.40;99.90;;;;;;5055151;28;20623;-36
2024/01/16 02:06:27;;;;;;;8.70;6.57;;;4.40;99.90;;;;;;5034769;28;20211;-39
2024/01/16 02:08:53;;;;;;;8.48;7.65;;;4.40;99.90;;;;;;5057459;28;20199;-38
2024/01/16 02:11:24;;;;;;;9.68;7.35;;;4.40;99.90;;;;;;5057204;28;20647;-36
2024/01/16 02:13:54;;;;;;;12.02;7.03;;;4.40;99.90;;;;;;5042255;28;20180;-36
2024/01/16 02:16:22;;;;;;;8.45;7.65;;;4.40;99.90;;;;;;5030533;28;20199;-35
2024/01/16 02:18:49;;;;;;;8.85;7.53;;;4.40;99.90;;;;;;5054652;28;20215;-38
2024/01/16 02:21:22;;;;;;;8.70;7.85;;;4.40;99.90;;;;;;5021730;28;20192;-38
2024/01/16 02:23:48;;;;;;;8.65;7.38;;;4.40;99.90;;;;;;5053840;28;20202;-39
2024/01/16 02:26:17;;;;;;;11.00;7.30;;;4.40;99.90;;;;;;5056091;28;20172;-40
2024/01/16 02:28:44;;;;;;;7.90;7.10;;;4.40;99.90;;;;;;5055891;28;20196;-36
2024/01/16 02:31:12;;;;;;;10.02;7.32;;;4.40;99.90;;;;;;5057360;28;20301;-39
2024/01/16 02:33:43;;;;;;;7.90;7.05;;;4.40;99.90;;;;;;5053927;28;20212;-39
2024/01/16 02:36:09;;;;;;;13.02;7.50;;;4.40;99.90;;;;;;5050966;28;20661;-36
2024/01/16 02:38:35;;;;;;;12.57;7.88;;;4.40;99.90;;;;;;5032127;28;20184;-32
2024/01/16 02:41:04;;;;;;;8.40;7.40;;;4.40;99.90;;;;;;5055030;28;20930;-34
2024/01/16 02:43:32;;;;;;;10.05;7.80;;;4.40;99.90;;;;;;5047750;28;20195;-36
2024/01/16 02:45:59;;;;;;;10.85;7.63;;;4.40;99.90;;;;;;5059296;28;20279;-32
2024/01/16 02:48:28;;;;;;;10.88;8.05;;;4.40;99.90;;;;;;5041969;28;20239;-39
2024/01/16 02:50:54;;;;;;;11.05;8.45;;;4.40;99.90;;;;;;5050365;28;20185;-37
2024/01/16 02:53:20;;;;;;;9.80;8.10;;;4.40;99.90;;;;;;5038579;28;20199;-36
2024/01/16 02:55:46;;;;;;;9.30;7.95;;;4.40;99.90;;;;;;5034451;28;21258;-39
2024/01/16 02:58:15;;;;;;;14.13;8.93;;;4.40;99.90;;;;;;5052091;28;20755;-39
2024/01/16 03:00:45;;;;;;;11.38;8.05;;;4.40;99.90;;;;;;5053831;28;20224;-36
2024/01/16 03:03:14;;;;;;;9.88;8.85;;;4.40;99.90;;;;;;5005554;28;20299;-35
2024/01/16 03:05:42;;;;;;;10.25;8.68;;;4.40;99.90;;;;;;5054904;28;20182;-39
2024/01/16 03:08:11;;;;;;;11.25;7.90;;;4.40;99.90;;;;;;5052071;28;20841;-37
2024/01/16 03:10:37;;;;;;;9.32;8.10;;;4.40;99.90;;;;;;5047192;28;20308;-37
2024/01/16 03:13:03;;;;;;;11.77;8.75;;;4.40;99.90;;;;;;5041102;28;20204;-31
2024/01/16 03:15:31;;;;;;;12.55;8.60;;;4.40;99.90;;;;;;5032513;28;20187;-37
2024/01/16 03:17:59;;;;;;;11.50;9.23;;;4.40;99.90;;;;;;5052007;28;20202;-40
2024/01/16 03:20:26;;;;;;;11.77;8.60;;;4.40;99.90;;;;;;5032784;28;20216;-40
2024/01/16 03:22:52;;;;;;;9.85;7.80;;;4.40;99.90;;;;;;5034980;28;20188;-35
2024/01/16 03:25:19;;;;;;;11.67;8.93;;;4.40;99.90;;;;;;5048975;28;20233;-37
2024/01/16 03:27:45;;;;;;;10.50;8.57;;;4.40;99.90;;;;;;5049659;28;21019;-37
2024/01/16 03:30:11;;;;;;;11.17;8.93;;;4.40;99.90;;;;;;5027610;28;20300;-40
2024/01/16 03:32:38;;;;;;;9.60;8.60;;;4.40;99.90;;;;;;5050652;28;20823;-36
2024/01/16 03:35:07;;;;;;;10.27;9.07;;;4.40;99.90;;;;;;5047503;28;20710;-36
2024/01/16 03:37:34;;;;;;;12.52;9.00;;;4.40;99.90;;;;;;5035628;28;20717;-36
2024/01/16 03:40:02;;;;;;;17.52;10.00;;;4.40;99.90;;;;;;5057996;28;20284;-39
2024/01/16 03:42:32;;;;;;;9.90;8.63;;;4.40;99.90;;;;;;5051597;28;20238;-37
2024/01/16 03:44:58;;;;;;;11.85;10.10;;;4.40;99.90;;;;;;5036978;28;20187;-39
2024/01/16 03:47:24;;;;;;;11.90;9.57;;;4.40;99.90;;;;;;5039383;28;20214;-34
2024/01/16 03:49:50;;;;;;;13.40;9.07;;;4.40;99.90;;;;;;5030488;28;20572;-33
2024/01/16 03:52:16;;;;;;;14.38;10.10;;;4.40;99.90;;;;;;5036335;28;20227;-39
2024/01/16 03:54:42;;;;;;;9.73;8.60;;;4.40;99.90;;;;;;5047987;28;20342;-36
2024/01/16 03:57:10;;;;;;;10.68;8.77;;;4.40;99.90;;;;;;5018960;28;20461;-35
2024/01/16 03:59:39;;;;;;;10.52;8.85;;;4.40;99.90;;;;;;5041632;28;20579;-38
2024/01/16 04:02:09;;;;;;;9.60;8.60;;;4.40;99.90;;;;;;5047636;28;20215;-31
2024/01/16 04:04:43;;;;;;;14.85;8.82;;;4.40;99.90;;;;;;5013770;28;20207;-36
2024/01/16 04:07:11;;;;;;;10.20;8.85;;;4.40;99.90;;;;;;5014740;28;20295;-38
2024/01/16 04:09:40;;;;;;;16.73;8.80;;;4.40;99.90;;;;;;5042420;28;20287;-36
2024/01/16 04:12:08;;;;;;;14.63;8.90;;;4.40;99.90;;;;;;5044868;28;20427;-35
2024/01/16 04:14:36;;;;;;;9.48;8.57;;;4.40;99.90;;;;;;5057404;28;20193;-36
2024/01/16 04:17:02;;;;;;;11.35;9.07;;;4.40;99.90;;;;;;5043927;28;20179;-34
2024/01/16 04:19:33;;;;;;;11.15;8.70;;;4.40;99.90;;;;;;5046378;28;20316;-39
2024/01/16 04:22:01;;;;;;;11.30;8.93;;;4.40;99.90;;;;;;5050106;28;20206;-37
2024/01/16 04:24:27;;;;;;;10.30;7.97;;;4.40;99.90;;;;;;5038326;28;20177;-40
2024/01/16 04:26:54;;;;;;;12.75;8.75;;;4.40;99.90;;;;;;5030451;28;20180;-35
2024/01/16 04:29:19;;;;;;;9.80;7.50;;;4.40;99.90;;;;;;5049205;28;20207;-39
2024/01/16 04:31:45;;;;;;;15.40;8.50;;;4.40;99.90;;;;;;5047955;28;20200;-39
2024/01/16 04:34:12;;;;;;;9.15;7.72;;;4.40;99.90;;;;;;5016371;28;20257;-36
2024/01/16 04:36:37;;;;;;;9.60;8.02;;;4.40;99.90;;;;;;5024731;28;20366;-39
2024/01/16 04:39:03;;;;;;;12.37;8.10;;;4.40;99.90;;;;;;5048993;28;20220;-40
2024/01/16 04:41:32;;;;;;;10.07;7.80;;;4.40;99.90;;;;;;5054953;28;20443;-36
2024/01/16 04:43:58;;;;;;;7.85;7.07;;;4.40;99.90;;;;;;5046024;28;20263;-34
2024/01/16 04:46:24;;;;;;;9.50;6.77;;;4.40;99.90;;;;;;5051844;28;20184;-36
2024/01/16 04:48:53;;;;;;;10.60;6.95;;;4.40;99.90;;;;;;5050835;28;20878;-36
2024/01/16 04:51:19;;;;;;;7.60;6.78;;;4.40;99.90;;;;;;5035903;28;20234;-38
2024/01/16 04:53:45;;;;;;;8.52;7.25;;;4.40;99.90;;;;;;5036305;28;20287;-38
2024/01/16 04:56:14;;;;;;;9.13;7.32;;;4.40;99.90;;;;;;5047743;28;20198;-36
2024/01/16 04:58:40;;;;;;;8.33;6.80;;;4.40;99.90;;;;;;5020549;28;20219;-38
2024/01/16 05:01:08;;;;;;;8.40;7.30;;;4.40;99.90;;;;;;5047294;28;20480;-37
2024/01/16 05:03:34;;;;;;;7.72;6.95;;;4.40;99.90;;;;;;5041304;28;20720;-39
2024/01/16 05:06:01;;;;;;;8.98;6.63;;;4.40;99.90;;;;;;5052497;28;20638;-39
2024/01/16 05:08:30;;;;;;;7.63;6.78;;;4.40;99.90;;;;;;5024631;28;20238;-37
2024/01/16 05:10:57;;;;;;;11.65;6.90;;;4.40;99.90;;;;;;5033603;28;20192;-36
2024/01/16 05:13:22;;;;;;;8.32;7.13;;;4.40;99.90;;;;;;5036351;28;20204;-36
2024/01/16 05:15:49;;;;;;;10.23;7.30;;;4.40;99.90;;;;;;5042978;28;20262;-36
2024/01/16 05:18:14;;;;;;;10.65;6.60;;;4.40;99.90;;;;;;5051834;28;20433;-38
2024/01/16 05:20:41;;;;;;;9.17;6.33;;;4.40;99.90;;;;;;5047212;28;20703;-38
2024/01/16 05:23:07;;;;;;;9.10;7.55;;;4.40;99.90;;;;;;5033174;28;20453;-40
2024/01/16 05:25:33;;;;;;;9.18;7.78;;;4.40;99.90;;;;;;5025470;28;20199;-36
2024/01/16 05:28:00;;;;;;;8.13;6.93;;;4.40;99.90;;;;;;5027682;28;20180;-35
2024/01/16 05:30:28;;;;;;;9.90;8.35;;;4.40;99.90;;;;;;5027632;28;20795;-35
2024/01/16 05:32:55;;;;;;;13.00;8.10;;;4.30;99.90;;;;;;5013661;28;20223;-39
2024/01/16 05:35:24;;;;;;;9.02;8.07;;;4.40;99.90;;;;;;5026416;28;20443;-33
2024/01/16 05:37:50;;;;;;;7.95;7.15;;;4.40;99.90;;;;;;5048246;28;20271;-36
2024/01/16 05:40:16;;;;;;;9.90;8.70;;;4.40;99.90;;;;;;5056139;28;20306;-32
2024/01/16 05:42:42;;;;;;;14.60;9.93;;;4.40;99.90;;;;;;5032856;28;20454;-38
2024/01/16 05:45:08;;;;;;;9.20;8.32;;;4.30;99.90;;;;;;5028906;28;21526;-34
2024/01/16 05:47:39;;;;;;;10.23;9.00;;;4.30;99.90;;;;;;5031095;28;20533;-40
2024/01/16 05:50:06;;;;;;;9.85;8.57;;;4.30;99.90;;;;;;5019428;28;20207;-36
2024/01/16 05:52:34;;;;;;;17.58;8.93;;;4.30;99.90;;;;;;5055346;28;20188;-34
2024/01/16 05:55:03;;;;;;;12.98;8.35;;;4.40;99.90;;;;;;5038075;28;20219;-38
2024/01/16 05:57:34;;;;;;;11.18;8.45;;;4.30;99.90;;;;;;5057487;28;20200;-33
2024/01/16 06:00:05;;;;;;;10.05;8.75;;;4.30;99.90;;;;;;5041883;28;20219;-38
2024/01/16 06:02:37;;;;;;;11.18;8.52;;;4.40;99.90;;;;;;5035028;28;20176;-40
2024/01/16 06:05:07;;;;;;;11.02;8.98;;;4.30;99.90;;;;;;5050685;28;20188;-38
2024/01/16 06:07:35;;;;;;;13.38;8.43;;;4.30;99.90;;;;;;5034051;28;20225;-36
2024/01/16 06:10:04;;;;;;;8.80;7.55;;;4.30;99.90;;;;;;5057488;28;20207;-35
2024/01/16 06:12:31;;;;;;;8.50;7.05;;;4.30;99.90;;;;;;5027549;28;20199;-36
2024/01/16 06:14:57;;;;;;;9.02;7.60;;;4.30;99.90;;;;;;5054140;28;20302;-39
2024/01/16 06:17:27;;;;;;;9.48;7.55;;;4.30;99.90;;;;;;5060109;28;20196;-34
2024/01/16 06:19:53;;;;;;;14.00;8.20;;;4.30;99.90;;;;;;5055889;28;20223;-37
2024/01/16 06:22:21;;;;;;;10.98;7.85;;;4.30;99.90;;;;;;5037576;28;20247;-37
2024/01/16 06:24:47;;;;;;;9.97;7.70;;;4.30;99.90;;;;;;5051616;28;20291;-40
2024/01/16 06:27:18;;;;;;;8.13;7.25;;;4.30;99.90;;;;;;5054428;28;20473;-35
2024/01/16 06:29:45;;;;;;;9.75;7.00;;;4.30;99.90;;;;;;5038427;28;20285;-33
2024/01/16 06:32:11;;;;;;;8.77;7.50;;;4.30;99.90;;;;;;5028388;28;20288;-37
2024/01/16 06:34:38;;;;;;;7.97;6.53;;;4.30;99.90;;;;;;5029767;28;20190;-37
2024/01/16 06:37:05;;;;;;;11.30;7.13;;;4.30;99.90;;;;;;4992840;28;20454;-38
2024/01/16 06:39:37;;;;;;;7.05;6.25;;;4.30;99.90;;;;;;5035199;28;20608;-40
2024/01/16 06:42:06;;;;;;;7.32;6.07;;;4.30;99.90;;;;;;5008083;28;20193;-36
2024/01/16 06:44:32;;;;;;;8.27;7.15;;;4.30;99.90;;;;;;5009893;28;20189;-34
2024/01/16 06:46:58;;;;;;;8.48;5.60;;;4.30;99.90;;;;;;5028739;28;20220;-37
2024/01/16 06:49:29;;;;;;;10.52;6.45;;;4.30;99.90;;;;;;5014770;28;20208;-36
2024/01/16 06:51:57;;;;;;;8.85;6.10;;;4.30;99.90;;;;;;5009214;28;20779;-37
2024/01/16 06:54:23;;;;;;;10.75;6.93;;;4.30;99.90;;;;;;5022522;28;20200;-36
2024/01/16 06:56:49;;;;;;;10.88;6.57;;;4.30;99.90;;;;;;5027975;28;20188;-36
2024/01/16 06:59:19;;;;;;;9.95;6.15;;;4.30;99.90;;;;;;4995111;28;20315;-39
2024/01/16 07:01:50;;;;;;;9.60;6.90;;;4.30;99.90;;;;;;4995326;28;20243;-38
2024/01/16 07:04:18;;;;;;;8.55;5.90;;;4.30;99.90;;;;;;5030208;28;20734;-36
2024/01/16 07:06:47;;;;;;;8.07;6.20;;;4.30;99.90;;;;;;5028875;28;20782;-36
2024/01/16 07:09:20;;;;;;;9.75;7.35;;;4.30;99.90;;;;;;5028518;28;20238;-36
2024/01/16 07:11:49;;;;;;;7.65;5.60;;;4.30;99.90;;;;;;5030051;28;20213;-32
2024/01/16 07:14:20;;;;;;;7.07;6.20;;;4.30;99.90;;;;;;4993025;28;20189;-39
2024/01/16 07:16:49;;;;;;;9.50;5.70;;;4.30;99.90;;;;;;4976737;28;20247;-36
2024/01/16 07:19:16;;;;;;;7.25;5.20;;;4.30;99.90;;;;;;5028345;28;20213;-40
2024/01/16 07:21:42;;;;;;;10.52;6.75;;;4.30;99.90;;;;;;5007414;28;20262;-37
2024/01/16 07:24:08;;;;;;;10.88;5.40;;;4.30;99.90;;;;;;5035325;28;20236;-35
2024/01/16 07:26:36;;;;;;;6.43;5.20;;;4.30;99.90;;;;;;5025274;28;20185;-39
2024/01/16 07:29:03;;;;;;;6.30;4.70;;;4.30;99.90;;;;;;5025762;28;20211;-34
2024/01/16 07:31:29;;;;;;;10.05;6.32;;;4.30;99.90;;;;;;4998575;28;20454;-36
2024/01/16 07:34:00;;;;;;;7.65;5.10;;;4.20;99.90;;;;;;5028019;28;20192;-36
2024/01/16 07:36:26;;;;;;;15.23;6.50;;;4.30;99.90;;;;;;4976533;28;20568;-41
2024/01/16 07:38:54;;;;;;;9.30;4.45;;;4.20;99.90;;;;;;5012018;28;20209;-39
2024/01/16 07:41:23;;;;;;;6.68;4.35;;;4.20;99.90;;;;;;5020986;28;20213;-40
2024/01/16 07:43:50;;;;;;;9.60;5.22;;;4.20;99.90;;;;;;5032387;28;20192;-34
2024/01/16 07:46:16;;;;;;;8.23;4.63;;;4.20;99.90;;;;;;5027467;28;20227;-38
2024/01/16 07:48:46;;;;;;;6.65;5.05;;;4.20;99.90;;;;;;4986064;28;20224;-36
2024/01/16 07:51:13;;;;;;;7.53;4.35;;;4.20;99.90;;;;;;4992563;28;20277;-36
2024/01/16 07:53:43;;;;;;;7.20;4.63;;;4.20;99.90;;;;;;5021557;28;20185;-38
2024/01/16 07:56:14;;;;;;;10.43;4.97;;;4.20;99.90;;;;;;5013146;28;20730;-31
2024/01/16 07:58:42;;;;;;;8.07;4.70;;;4.20;99.90;;;;;;5032026;28;20208;-40
2024/01/16 08:01:08;;;;;;;10.87;4.70;;;4.20;99.90;;;;;;4992157;28;20785;-40
2024/01/16 08:03:38;;;;;;;6.77;3.93;;;4.20;99.90;;;;;;5005322;28;20465;-39
2024/01/16 08:06:04;;;;;;;8.60;3.70;;;4.20;99.90;;;;;;5024370;28;20419;-39
2024/01/16 08:08:33;;;;;;;5.93;3.70;;;4.20;99.90;;;;;;5007249;28;20719;-40
2024/01/16 08:10:59;;;;;;;5.53;4.05;;;4.20;99.90;;;;;;5006995;28;20475;-40
2024/01/16 08:13:28;;;;;;;4.85;3.72;;;4.20;99.90;;;;;;5025234;28;20181;-40
2024/01/16 08:15:58;;;;;;;6.65;3.92;;;4.20;99.90;;;;;;4989235;28;20184;-39
2024/01/16 08:18:24;;;;;;;5.93;4.03;;;4.20;99.90;;;;;;5001021;28;20255;-39
2024/01/16 08:20:53;;;;;;;5.82;4.40;;;4.20;99.90;;;;;;5028278;28;20228;-37
2024/01/16 08:23:21;;;;;;;6.18;3.83;;;4.20;99.90;;;;;;5003269;28;20280;-39
2024/01/16 08:25:48;;;;;;;6.95;4.10;;;4.20;99.90;;;;;;5021564;28;20180;-39
2024/01/16 08:28:14;;;;;;;5.90;3.58;;;4.20;99.90;;;;;;5001827;28;20215;-37
2024/01/16 08:30:40;;;;;;;5.35;4.03;;;4.20;99.90;;;;;;5009651;28;20691;-37
2024/01/16 08:33:12;;;;;;;7.85;4.07;;;4.20;99.90;;;;;;5032083;28;20262;-35
2024/01/16 08:35:42;;;;;;;9.65;3.72;;;4.20;99.90;;;;;;5035238;28;20180;-39
2024/01/16 08:38:11;;;;;;;7.03;3.70;;;4.20;99.90;;;;;;5020603;28;20185;-36
2024/01/16 08:40:39;;;;;;;5.90;3.85;;;4.20;99.90;;;;;;5049271;28;20744;-34
2024/01/16 08:43:08;;;;;;;6.60;4.00;;;4.20;99.90;;;;;;5020539;28;20636;-39
2024/01/16 08:45:36;;;;;;;4.68;3.97;;;4.20;99.90;;;;;;5040660;28;20179;-39
2024/01/16 08:48:02;;;;;;;5.60;3.30;;;4.20;99.90;;;;;;5043491;28;20211;-34
2024/01/16 08:50:29;;;;;;;6.03;3.60;;;4.20;99.90;;;;;;5013487;28;20693;-40
2024/01/16 08:52:55;;;;;;;3.70;3.40;;;4.20;99.90;;;;;;5035384;28;20192;-40
2024/01/16 08:55:21;;;;;;;6.67;4.57;;;4.20;99.80;;;;;;5032801;28;20768;-40
2024/01/16 08:57:47;;;;;;;9.15;4.32;;;4.20;99.60;;;;;;5020101;28;20451;-38
2024/01/16 09:00:15;;;;;;;8.80;3.90;;;4.20;99.50;;;;;;5029630;28;20228;-40
2024/01/16 09:02:41;;;;;;;8.15;3.50;;;4.20;99.60;;;;;;5044276;28;20476;-37
2024/01/16 09:05:07;;;;;;;5.72;3.72;;;4.20;99.60;;;;;;5051843;28;20255;-40
2024/01/16 09:07:33;;;;;;;8.98;4.22;;;4.20;99.70;;;;;;5032974;28;20677;-38
2024/01/16 09:09:59;;;;;;;6.35;4.18;;;4.20;99.70;;;;;;5055270;28;20230;-39
2024/01/16 09:12:28;;;;;;;8.07;4.30;;;4.20;99.60;;;;;;5053821;28;20192;-40
2024/01/16 09:14:54;;;;;;;8.38;4.00;;;4.20;99.70;;;;;;5036383;28;20199;-37
2024/01/16 09:17:27;;;;;;;9.07;4.72;;;4.20;99.40;;;;;;5052209;28;20718;-40
2024/01/16 09:19:53;;;;;;;7.55;3.92;;;4.20;99.40;;;;;;5020228;28;20218;-40
2024/01/16 09:22:22;;;;;;;6.60;3.70;;;4.20;99.40;;;;;;5029345;28;20608;-39
2024/01/16 09:24:48;;;;;;;4.07;3.35;;;4.20;99.30;;;;;;5050919;28;20504;-39
2024/01/16 09:27:16;;;;;;;8.50;4.27;;;4.20;99.30;;;;;;5045511;28;20528;-40
2024/01/16 09:29:42;;;;;;;8.57;3.80;;;4.20;99.40;;;;;;5048523;28;20493;-39
2024/01/16 09:32:09;;;;;;;5.75;3.95;;;4.20;99.40;;;;;;4994279;23;20226;-38
2024/01/16 09:34:35;;;;;;;6.55;4.50;;;4.20;99.30;;;;;;4995715;28;20189;-40
2024/01/16 09:37:02;;;;;;;7.43;4.50;;;4.20;99.30;;;;;;4976369;28;20192;-37
2024/01/16 09:39:35;;;;;;;8.18;4.65;;;4.20;99.30;;;;;;4992475;28;20480;-39
2024/01/16 09:42:01;;;;;;;5.53;4.30;;;4.20;99.20;;;;;;4993855;28;20189;-37
2024/01/16 09:44:28;;;;;;;7.28;4.10;;;4.20;99.20;;;;;;4975545;28;20227;-34
2024/01/16 09:46:56;;;;;;;10.23;4.93;;;4.20;99.20;;;;;;4997958;28;20261;-38
2024/01/16 09:49:23;;;;;;;6.60;3.65;;;4.20;99.10;;;;;;4985531;28;20730;-35
2024/01/16 09:51:49;;;;;;;5.32;3.70;;;4.20;99.10;;;;;;4982918;28;20194;-35
2024/01/16 09:54:15;;;;;;;6.85;4.28;;;4.20;99.00;;;;;;4997664;28;20189;-37
2024/01/16 09:56:48;;;;;;;5.68;3.90;;;4.20;99.10;;;;;;4997087;28;20252;-39
2024/01/16 09:59:18;;;;;;;7.20;4.00;;;4.20;99.00;;;;;;5002787;28;20507;-37
2024/01/16 10:01:45;;;;;;;6.68;3.72;;;4.20;99.10;;;;;;4998745;28;20241;-35
2024/01/16 10:04:15;;;;;;;11.55;4.60;;;4.20;99.30;;;;;;4961841;28;20576;-32
2024/01/16 10:06:44;;;;;;;8.93;4.40;;;4.20;99.20;;;;;;4970671;28;20216;-32
2024/01/16 10:09:12;;;;;;;5.55;4.18;;;4.20;99.00;;;;;;4985554;28;20688;-36
2024/01/16 10:11:38;;;;;;;8.07;4.40;;;4.20;99.20;;;;;;4993423;28;20272;-30
2024/01/16 10:14:04;;;;;;;8.65;4.38;;;4.20;98.90;;;;;;4998998;28;20268;-32
2024/01/16 10:17:05;;;;;;;6.97;4.15;;;4.20;99.00;;;;;;4999744;28;20202;-32
2024/01/16 10:19:34;;;;;;;9.60;4.35;;;4.20;98.80;;;;;;4992533;28;20341;-37
2024/01/16 10:22:04;;;;;;;8.80;4.10;;;4.20;98.70;;;;;;4979586;28;20732;-36
2024/01/16 10:24:31;;;;;;;7.10;4.10;;;4.20;98.70;;;;;;4978815;28;20559;-33
2024/01/16 10:27:02;;;;;;;11.57;4.57;;;4.20;98.70;;;;;;4966642;28;20285;-38
2024/01/16 10:29:32;;;;;;;7.43;4.20;;;4.20;98.60;;;;;;4999525;28;20245;-35
2024/01/16 10:32:01;;;;;;;9.05;4.47;;;4.20;98.50;;;;;;5004653;28;20204;-36
2024/01/16 10:34:30;;;;;;;5.82;4.68;;;4.20;98.40;;;;;;5015639;28;20201;-35
2024/01/16 10:37:03;;;;;;;7.13;5.03;;;4.20;98.30;;;;;;5020306;28;20240;-33
2024/01/16 10:39:29;;;;;;;6.28;4.60;;;4.20;98.30;;;;;;5019862;28;20213;-33
2024/01/16 10:41:57;;;;;;;6.88;4.70;;;4.20;98.40;;;;;;5015186;28;20220;-37
2024/01/16 10:44:27;;;;;;;7.70;3.85;;;4.20;98.40;;;;;;5019376;28;20839;-35
2024/01/16 10:47:11;;;;;;;4.80;3.67;;;4.20;98.30;;;;;;5022090;28;20209;-35
2024/01/16 10:49:40;;;;;;;6.35;4.20;;;4.20;98.30;;;;;;4986401;28;20763;-34
2024/01/16 10:52:12;;;;;;;9.00;4.68;;;4.20;98.10;;;;;;5002801;28;20426;-30
2024/01/16 10:54:42;;;;;;;6.20;4.35;;;4.20;98.00;;;;;;5012185;28;20239;-31
2024/01/16 10:57:09;;;;;;;7.05;4.50;;;4.20;98.00;;;;;;5000015;28;20520;-33
2024/01/16 10:59:46;;;;;;;17.15;5.13;;;4.20;97.90;;;;;;5001605;28;20334;-36
2024/01/16 11:02:15;;;;;;;8.32;4.20;;;4.20;98.00;;;;;;5003212;28;20211;-35
2024/01/16 11:04:43;;;;;;;8.25;4.40;;;4.20;98.00;;;;;;5008728;28;20499;-35
2024/01/16 11:07:09;;;;;;;6.25;4.50;;;4.20;97.90;;;;;;5017646;28;20301;-33
2024/01/16 11:09:36;;;;;;;9.73;4.75;;;4.20;97.90;;;;;;4999855;28;20217;-34
2024/01/16 11:12:03;;;;;;;6.22;4.50;;;4.20;98.00;;;;;;5010048;28;20256;-33
2024/01/16 11:14:31;;;;;;;6.22;4.13;;;4.20;98.00;;;;;;5017932;28;20188;-36
2024/01/16 11:17:01;;;;;;;8.00;4.50;;;4.20;98.10;;;;;;5016993;28;20223;-32
2024/01/16 11:19:30;;;;;;;5.82;3.97;;;4.20;98.00;;;;;;5012395;28;20732;-33
2024/01/16 11:21:56;;;;;;;6.75;5.22;;;4.20;97.80;;;;;;5013696;28;20193;-31
2024/01/16 11:24:22;;;;;;;7.95;4.45;;;4.20;97.80;;;;;;5019635;28;20189;-33
2024/01/16 11:26:48;;;;;;;7.22;4.57;;;4.20;97.70;;;;;;5004199;28;20605;-33
2024/01/16 11:29:30;;;;;;;8.07;5.10;;;4.20;98.00;;;;;;5012460;28;20268;-33
2024/01/16 11:32:00;;;;;;;8.07;5.10;;;4.20;97.70;;;;;;5018255;28;20227;-33
2024/01/16 11:34:41;;;;;;;7.63;4.47;;;4.20;97.60;;;;;;5020696;28;20208;-33
2024/01/16 11:37:13;;;;;;;10.02;4.60;;;4.20;97.50;;;;;;4983309;28;20197;-40
2024/01/16 11:39:43;;;;;;;6.75;4.40;;;4.20;97.40;;;;;;5007802;28;20312;-38
2024/01/16 11:42:11;;;;;;;6.57;5.55;;;4.20;97.50;;;;;;5008811;28;20200;-39
2024/01/16 11:44:54;;;;;;;8.88;4.40;;;4.20;97.60;;;;;;5012781;28;20182;-37
2024/01/16 11:47:21;;;;;;;12.50;4.55;;;4.20;97.60;;;;;;5005366;28;20205;-38
2024/01/16 11:49:47;;;;;;;7.75;4.65;;;4.20;97.60;;;;;;4996122;28;20355;-38
2024/01/16 11:52:43;;;;;;;8.70;5.00;;;4.20;97.60;;;;;;5005889;28;20224;-40
2024/01/16 11:55:30;;;;;;;7.00;4.38;;;4.20;97.70;;;;;;4997405;28;20216;-40
2024/01/16 11:58:28;;;;;;;8.85;5.07;;;4.20;97.70;;;;;;5006851;28;20201;-40
2024/01/16 12:00:57;;;;;;;5.57;4.70;;;4.20;97.40;;;;;;4911855;28;20239;-40
2024/01/16 12:03:26;;;;;;;10.25;4.90;;;4.20;97.30;;;;;;5013474;28;20208;-39
2024/01/16 12:06:01;;;;;;;8.32;4.97;;;4.20;97.40;;;;;;5002906;28;20580;-38
2024/01/16 12:08:28;;;;;;;7.63;5.00;;;4.20;97.40;;;;;;5004483;28;20196;-40
2024/01/16 12:10:54;;;;;;;7.60;4.28;;;4.20;97.50;;;;;;4981810;28;20190;-40
2024/01/16 12:13:20;;;;;;;10.95;4.80;;;4.20;97.50;;;;;;4998199;28;20191;-39
2024/01/16 12:15:46;;;;;;;6.70;4.40;;;4.20;97.50;;;;;;5017136;28;20193;-40
2024/01/16 12:18:21;;;;;;;8.57;4.75;;;4.20;97.30;;;;;;5008351;28;20763;-40
2024/01/16 12:20:47;;;;;;;6.43;4.55;;;4.20;97.20;;;;;;5011242;28;20212;-39
2024/01/16 12:23:13;;;;;;;7.27;4.73;;;4.20;97.20;;;;;;5010543;28;20310;-40
2024/01/16 12:25:42;;;;;;;8.55;5.05;;;4.20;97.20;;;;;;5014568;28;20515;-40
2024/01/16 12:28:11;;;;;;;6.25;4.38;;;4.20;97.20;;;;;;4996888;28;20240;-40
2024/01/16 12:30:38;;;;;;;7.75;4.75;;;4.20;97.20;;;;;;5016111;28;20267;-39
2024/01/16 12:33:12;;;;;;;7.85;4.50;;;4.20;97.20;;;;;;5010253;28;20203;-40
2024/01/16 12:35:45;;;;;;;6.93;4.30;;;4.20;97.30;;;;;;5005985;28;20189;-40
2024/01/16 12:38:12;;;;;;;7.60;4.40;;;4.20;97.40;;;;;;5005229;28;21197;-40
2024/01/16 12:40:52;;;;;;;9.60;5.00;;;4.20;97.40;;;;;;5004404;28;20218;-40
2024/01/16 12:43:18;;;;;;;6.07;4.40;;;4.20;97.40;;;;;;5011385;28;20197;-39
2024/01/16 12:45:46;;;;;;;10.65;4.40;;;4.20;97.30;;;;;;5009180;28;20262;-39
2024/01/16 12:48:25;;;;;;;8.60;4.80;;;4.20;97.40;;;;;;5013728;28;20189;-40
2024/01/16 12:50:59;;;;;;;8.20;5.07;;;4.20;97.30;;;;;;5002109;28;20204;-40
2024/01/16 12:53:39;;;;;;;6.00;4.35;;;4.20;97.30;;;;;;5005810;28;20196;-34
2024/01/16 12:56:07;;;;;;;10.48;5.50;;;4.20;97.20;;;;;;4999544;28;20193;-40
2024/01/16 12:58:37;;;;;;;10.18;5.07;;;4.30;97.20;;;;;;5005104;28;20323;-33
2024/01/16 13:01:22;;;;;;;9.65;4.95;;;4.20;97.10;;;;;;5008311;28;20703;-39